Gaz Venture — 3FLQ4 — position and weather

sailwx.info

Track history (hours):
 
Tides and Currents Weather Stations Pressure Air Temp Water Temp Dewpoint Dewpoint Depression Visibility Wind Speed Wind Dir Waves Ship Positions

Gaz Venture

Last reported at 2014-Nov-15 08:09 UTC. Time now 2014-Nov-24 07:03 UTC.
Position N 34°51' E 023°50'.
Warning: this ship's position is 8 days out of date.

Length 120 m; draft 5.5 m.

Type: Ship. MMSI: 356141000.

Date/timePositionNaut miles runAvg speedWind from/ knotsBaromVisibWave heightAir tempDewpointWater temp
2014-Nov-15 08:09N 34°51' E 023°50'  
2014-Nov-11 17:07N 32°49' E 031°56'1115.9
2014-Nov-11 16:26N 32°52' E 032°08'1416.1
2014-Nov-11 15:34N 32°55' E 032°25'3815.7
2014-Nov-11 13:07N 33°05' E 033°09'1115.1
2014-Nov-11 12:22N 33°09' E 033°22'1314.7
2014-Nov-11 11:28N 33°12' E 033°37'1615.2
2014-Nov-11 10:27N 33°16' E 033°55'1315.3
2014-Nov-11 09:33N 33°20' E 034°10'1515.2
2014-Nov-11 08:34N 33°24' E 034°28'1514.9
2014-Nov-11 07:34N 33°28' E 034°45'2914.5
2014-Nov-11 05:33N 33°31' E 035°20'0 0.4
2014-Nov-11 04:27N 33°31' E 035°20'0 0.0
2014-Nov-11 01:24N 33°31' E 035°20'0 0.0
2014-Nov-11 00:15N 33°31' E 035°20'0 0.0
2014-Nov-10 23:33N 33°31' E 035°20'0 0.0
2014-Nov-10 22:33N 33°31' E 035°20'0 0.0
2014-Nov-10 21:18N 33°31' E 035°20'0 0.0
2014-Nov-10 20:33N 33°31' E 035°20'0 0.0
2014-Nov-10 12:30N 33°31' E 035°20'0 0.0
2014-Nov-10 10:27N 33°31' E 035°20'0 0.0
2014-Nov-10 09:33N 33°31' E 035°20'0 0.0
2014-Nov-10 05:15N 33°31' E 035°20'1 1.3
2014-Nov-10 04:33N 33°32' E 035°20'1 0.1
2014-Nov-09 21:28N 33°32' E 035°19'0 0.0
2014-Nov-09 19:31N 33°32' E 035°19'26 1.1
2014-Nov-08 20:17N 33°55' E 035°34'129 8.0
2014-Nov-08 04:07N 34°03' E 032°59'28414.2
2014-Nov-07 08:07N 34°25' E 027°16'914.3
2014-Nov-07 07:29N 34°26' E 027°06'  
Track history (hours):
 
Tides and Currents Weather Stations Pressure Air Temp Water Temp Dewpoint Dewpoint Depression Visibility Wind Speed Wind Dir Waves Ship Positions

Gaz Venture

Last reported at 2014-Nov-15 08:09 UTC. Time now 2014-Nov-24 07:03 UTC.
Position N 34°51' E 023°50'.
Warning: this ship's position is 8 days out of date.

Length 120 m; draft 5.5 m.

Type: Ship. MMSI: 356141000.

Date/timePositionNaut miles runAvg speedWind from/ knotsBaromVisibWave heightAir tempDewpointWater temp
2014-Nov-15 08:09N 34°51' E 023°50'  
2014-Nov-11 17:07N 32°49' E 031°56'1115.9
2014-Nov-11 16:26N 32°52' E 032°08'1416.1
2014-Nov-11 15:34N 32°55' E 032°25'3815.7
2014-Nov-11 13:07N 33°05' E 033°09'1115.1
2014-Nov-11 12:22N 33°09' E 033°22'1314.7
2014-Nov-11 11:28N 33°12' E 033°37'1615.2
2014-Nov-11 10:27N 33°16' E 033°55'1315.3
2014-Nov-11 09:33N 33°20' E 034°10'1515.2
2014-Nov-11 08:34N 33°24' E 034°28'1514.9
2014-Nov-11 07:34N 33°28' E 034°45'2914.5
2014-Nov-11 05:33N 33°31' E 035°20'0 0.4
2014-Nov-11 04:27N 33°31' E 035°20'0 0.0
2014-Nov-11 01:24N 33°31' E 035°20'0 0.0
2014-Nov-11 00:15N 33°31' E 035°20'0 0.0
2014-Nov-10 23:33N 33°31' E 035°20'0 0.0
2014-Nov-10 22:33N 33°31' E 035°20'0 0.0
2014-Nov-10 21:18N 33°31' E 035°20'0 0.0
2014-Nov-10 20:33N 33°31' E 035°20'0 0.0
2014-Nov-10 12:30N 33°31' E 035°20'0 0.0
2014-Nov-10 10:27N 33°31' E 035°20'0 0.0
2014-Nov-10 09:33N 33°31' E 035°20'0 0.0
2014-Nov-10 05:15N 33°31' E 035°20'1 1.3
2014-Nov-10 04:33N 33°32' E 035°20'1 0.1
2014-Nov-09 21:28N 33°32' E 035°19'0 0.0
2014-Nov-09 19:31N 33°32' E 035°19'26 1.1
2014-Nov-08 20:17N 33°55' E 035°34'129 8.0
2014-Nov-08 04:07N 34°03' E 032°59'28414.2
2014-Nov-07 08:07N 34°25' E 027°16'914.3
2014-Nov-07 07:29N 34°26' E 027°06'  

Dump ship's entire track history